Time;durP1;ratioP1;P1;durP2;ratioP2;P2;SDS_P1;SDS_P2;PMS_P1;PMS_P2;Temp;Humidity;BMP_temperature;BMP_pressure;BME280_temperature;BME280_humidity;BME280_pressure;Samples;Min_cycle;Max_cycle;Signal;HPM_P1;HPM_P2
2023/09/21 00:01:05;;;;;;;10.35;3.10;;;;;;;16.28;100.00;99949.47;5070748;28;20480;-73
2023/09/21 00:03:32;;;;;;;3.75;2.30;;;;;;;16.31;100.00;99960.66;5070819;28;20443;-73
2023/09/21 00:05:57;;;;;;;3.20;2.30;;;;;;;16.31;100.00;99944.88;5074596;28;20108;-74
2023/09/21 00:08:24;;;;;;;5.90;2.72;;;;;;;16.31;100.00;99947.50;5071894;28;20099;-74
2023/09/21 00:10:54;;;;;;;4.07;2.38;;;;;;;16.33;100.00;99942.16;5074538;28;20039;-74
2023/09/21 00:13:22;;;;;;;5.57;2.90;;;;;;;16.33;100.00;99937.75;5068975;28;20032;-73
2023/09/21 00:15:50;;;;;;;4.78;2.58;;;;;;;16.35;100.00;99940.31;5074091;28;20036;-73
2023/09/21 00:18:15;;;;;;;3.72;2.55;;;;;;;16.35;100.00;99945.56;5062586;28;20070;-73
2023/09/21 00:23:07;;;;;;;4.63;2.88;;;;;;;16.34;100.00;99928.06;5071045;28;20037;-73
2023/09/21 00:25:33;;;;;;;4.32;2.10;;;;;;;16.32;100.00;99922.06;5073889;28;20036;-74
2023/09/21 00:27:58;;;;;;;3.33;2.80;;;;;;;16.37;100.00;99925.25;5069173;28;20039;-74
2023/09/21 00:30:24;;;;;;;5.03;2.40;;;;;;;16.36;100.00;99915.69;5071616;28;20032;-74
2023/09/21 00:32:49;;;;;;;3.00;2.33;;;;;;;16.36;100.00;99918.31;5069046;28;20368;-74
2023/09/21 00:35:16;;;;;;;3.75;2.80;;;;;;;16.31;100.00;99901.97;5071087;28;20052;-74
2023/09/21 00:37:42;;;;;;;4.88;2.40;;;;;;;16.32;100.00;99901.88;5074053;28;20112;-73
2023/09/21 00:40:17;;;;;;;4.32;2.78;;;;;;;16.31;100.00;99909.84;5071245;28;20021;-73
2023/09/21 00:42:44;;;;;;;3.47;2.38;;;;;;;16.29;100.00;99896.81;5058352;28;20028;-73
2023/09/21 00:45:10;;;;;;;4.03;2.55;;;;;;;16.31;100.00;99891.44;5071092;28;20020;-73
2023/09/21 00:47:39;;;;;;;4.03;2.50;;;;;;;16.34;100.00;99886.81;5073086;28;20028;-74
2023/09/21 00:50:09;;;;;;;4.03;2.55;;;;;;;16.38;100.00;99887.47;5070522;28;20047;-73
2023/09/21 00:52:36;;;;;;;3.85;2.25;;;;;;;16.40;100.00;99880.34;5073666;28;20033;-73
2023/09/21 00:55:02;;;;;;;4.72;2.25;;;;;;;16.42;100.00;99886.38;5069638;28;20388;-73
2023/09/21 00:57:27;;;;;;;4.82;2.65;;;;;;;16.43;100.00;99879.31;5072737;28;20052;-74
2023/09/21 00:59:53;;;;;;;3.95;2.50;;;;;;;16.43;100.00;99879.31;5069861;28;20483;-73
2023/09/21 01:02:22;;;;;;;3.90;2.60;;;;;;;16.42;100.00;99875.00;5072266;28;20112;-74
2023/09/21 01:04:47;;;;;;;4.00;2.53;;;;;;;16.42;100.00;99862.69;5069081;28;20118;-73
2023/09/21 01:07:19;;;;;;;3.90;2.60;;;;;;;16.40;100.00;99854.03;5072530;28;20109;-74
2023/09/21 01:09:46;;;;;;;;;;;;;;;16.48;100.00;99866.69;5069034;28;20021;-73
2023/09/21 01:12:13;;;;;;;6.90;2.63;;;;;;;16.51;100.00;99862.13;5071631;28;19926;-73
2023/09/21 01:14:38;;;;;;;4.05;2.10;;;;;;;16.51;100.00;99851.59;5065508;28;20041;-73
2023/09/21 01:17:04;;;;;;;5.10;2.50;;;;;;;16.56;100.00;99853.91;5071336;28;20091;-74
2023/09/21 01:19:29;;;;;;;3.72;2.10;;;;;;;16.61;100.00;99849.19;5068701;28;20029;-74
2023/09/21 01:21:59;;;;;;;3.92;2.83;;;;;;;16.63;100.00;99840.25;5071581;28;20495;-74
2023/09/21 01:24:25;;;;;;;4.07;2.45;;;;;;;16.62;100.00;99833.31;5055803;28;20056;-73
2023/09/21 01:26:51;;;;;;;3.38;2.35;;;;;;;16.63;100.00;99834.16;5068871;28;20028;-74
2023/09/21 01:29:16;;;;;;;6.82;2.30;;;;;;;16.67;100.00;99835.63;5072719;28;20594;-74
2023/09/21 01:31:43;;;;;;;2.80;2.00;;;;;;;16.72;100.00;99835.34;5069920;28;20524;-74
2023/09/21 01:34:09;;;;;;;5.03;2.65;;;;;;;16.79;100.00;99836.66;5072820;28;20028;-73
2023/09/21 01:36:34;;;;;;;4.72;2.28;;;;;;;16.83;100.00;99830.25;5069228;28;20127;-73
2023/09/21 01:39:00;;;;;;;3.22;2.33;;;;;;;16.83;100.00;99823.19;5072588;28;20044;-73
2023/09/21 01:41:26;;;;;;;2.50;1.92;;;;;;;16.83;100.00;99817.09;5071502;28;20477;-73
2023/09/21 01:43:51;;;;;;;3.10;2.38;;;;;;;16.88;100.00;99822.06;5069981;28;20035;-73
2023/09/21 01:46:22;;;;;;;4.32;2.05;;;;;;;16.83;100.00;99817.09;5073234;28;20190;-74
2023/09/21 01:48:50;;;;;;;2.78;2.00;;;;;;;16.88;100.00;99815.03;5065496;28;20417;-74
2023/09/21 01:51:16;;;;;;;3.35;2.15;;;;;;;16.89;100.00;99807.97;5072582;28;20414;-73
2023/09/21 01:53:44;;;;;;;2.45;2.10;;;;;;;16.88;100.00;99804.50;5067352;28;20073;-73
2023/09/21 01:56:09;;;;;;;4.18;2.13;;;;;;;16.88;100.00;99808.91;5073021;28;20055;-73
2023/09/21 01:58:34;;;;;;;2.83;2.00;;;;;;;16.92;100.00;99797.22;5067470;28;20468;-74
2023/09/21 02:01:01;;;;;;;2.63;2.00;;;;;;;16.89;100.00;99800.91;5072160;28;20035;-74
2023/09/21 02:03:30;;;;;;;5.57;2.40;;;;;;;16.84;100.00;99792.47;5069032;28;20031;-74
2023/09/21 02:05:59;;;;;;;3.50;2.15;;;;;;;16.77;100.00;99793.81;5069321;28;20048;-74
2023/09/21 02:08:24;;;;;;;4.38;2.20;;;;;;;16.76;100.00;99803.50;5068158;28;20039;-73
2023/09/21 02:10:50;;;;;;;3.25;2.30;;;;;;;16.75;100.00;99800.97;5070493;28;20033;-74
2023/09/21 02:13:16;;;;;;;4.10;2.10;;;;;;;16.74;100.00;99800.09;5067759;28;20070;-74
2023/09/21 02:15:43;;;;;;;3.60;2.05;;;;;;;16.73;100.00;99797.56;5070188;28;20033;-73
2023/09/21 02:18:10;;;;;;;2.80;1.83;;;;;;;16.72;100.00;99798.50;5068153;28;20025;-73
2023/09/21 02:20:40;;;;;;;5.20;2.55;;;;;;;16.71;100.00;99797.69;5070181;28;20032;-73
2023/09/21 02:23:06;;;;;;;4.07;2.60;;;;;;;16.69;100.00;99791.66;5067317;28;20021;-74
2023/09/21 02:25:34;;;;;;;5.53;2.17;;;;;;;16.68;100.00;99781.25;5069901;28;20369;-73
2023/09/21 02:28:04;;;;;;;5.40;2.25;;;;;;;16.66;100.00;99783.97;5069216;28;20021;-73
2023/09/21 02:30:32;;;;;;;3.90;2.08;;;;;;;16.68;100.00;99783.88;5056611;28;20124;-74
2023/09/21 02:32:58;;;;;;;3.53;2.30;;;;;;;16.66;100.00;99773.44;5068475;28;20074;-73
2023/09/21 02:35:27;;;;;;;3.17;2.10;;;;;;;16.63;100.00;99787.63;5071349;28;20103;-73
2023/09/21 02:37:54;;;;;;;2.03;1.70;;;;;;;16.60;100.00;99782.56;5069117;28;20039;-73
2023/09/21 02:40:23;;;;;;;4.40;2.20;;;;;;;16.53;100.00;99765.50;5070865;28;20032;-73
2023/09/21 02:42:50;;;;;;;5.10;2.00;;;;;;;16.59;100.00;99769.53;5067575;28;20112;-74
2023/09/21 02:45:24;;;;;;;4.03;2.13;;;;;;;16.65;100.00;99770.91;5071665;28;20059;-73
2023/09/21 02:47:51;;;;;;;3.65;2.40;;;;;;;16.68;100.00;99778.63;5056730;28;20103;-73
2023/09/21 02:50:21;;;;;;;3.90;2.28;;;;;;;16.69;100.00;99772.41;5070579;28;20127;-74
2023/09/21 02:52:51;;;;;;;2.58;1.88;;;;;;;16.66;100.00;99777.84;5068160;28;20028;-74
2023/09/21 02:55:18;;;;;;;3.80;2.22;;;;;;;16.63;100.00;99766.56;5070700;28;20025;-73
2023/09/21 02:57:47;;;;;;;4.05;1.90;;;;;;;16.66;100.00;99776.06;5067540;28;20032;-73
2023/09/21 03:00:26;;;;;;;4.65;2.30;;;;;;;16.65;100.00;99770.91;5070918;28;20124;-73
2023/09/21 03:02:56;;;;;;;4.13;2.30;;;;;;;16.66;100.00;99765.53;5065419;28;20028;-74
2023/09/21 03:05:27;;;;;;;4.55;1.85;;;;;;;16.59;100.00;99762.47;5070673;28;20488;-73
2023/09/21 03:07:54;;;;;;;2.25;1.90;;;;;;;16.58;100.00;99760.78;5067209;28;20021;-73
2023/09/21 03:10:21;;;;;;;4.35;2.10;;;;;;;16.57;100.00;99761.72;5070474;28;20029;-73
2023/09/21 03:12:49;;;;;;;3.83;2.17;;;;;;;16.59;100.00;99753.72;5063147;28;20029;-73
2023/09/21 03:15:18;;;;;;;4.25;2.22;;;;;;;16.60;100.00;99755.41;5069701;28;20020;-73
2023/09/21 03:17:44;;;;;;;3.90;2.17;;;;;;;16.65;100.00;99757.75;5066629;28;20035;-73
2023/09/21 03:20:25;;;;;;;3.47;2.28;;;;;;;16.66;100.00;99759.44;5070382;28;20392;-74
2023/09/21 03:22:53;;;;;;;1.88;1.67;;;;;;;16.60;100.00;99758.03;5066665;28;20081;-73
2023/09/21 03:25:25;;;;;;;4.20;2.17;;;;;;;16.62;100.00;99758.81;5069539;28;20048;-73
2023/09/21 03:27:52;;;;;;;5.53;2.22;;;;;;;16.59;100.00;99753.72;5068751;28;20055;-73
2023/09/21 03:30:18;;;;;;;3.25;1.95;;;;;;;16.54;100.00;99751.38;5070619;28;20524;-74
2023/09/21 03:32:44;;;;;;;4.93;2.13;;;;;;;16.56;100.00;99759.19;5068243;28;20063;-74
2023/09/21 03:35:11;;;;;;;2.22;2.03;;;;;;;16.54;100.00;99747.91;5071184;28;20032;-73
2023/09/21 03:37:40;;;;;;;5.18;1.90;;;;;;;16.51;100.00;99749.00;5067747;28;20426;-73
2023/09/21 03:40:06;;;;;;;3.40;2.00;;;;;;;16.49;100.00;99752.66;5070911;28;20099;-74
2023/09/21 03:42:32;;;;;;;7.47;2.30;;;;;;;16.46;100.00;99752.84;5067849;28;20039;-73
2023/09/21 03:44:58;;;;;;;5.82;2.15;;;;;;;16.46;100.00;99745.81;5070500;28;20020;-74
2023/09/21 03:47:23;;;;;;;3.03;2.00;;;;;;;16.51;100.00;99738.47;5067944;28;20127;-73
2023/09/21 03:49:49;;;;;;;4.50;2.20;;;;;;;16.51;100.00;99735.84;5070296;28;20061;-73
2023/09/21 03:52:16;;;;;;;4.28;1.77;;;;;;;16.61;100.00;99736.03;5067760;28;20024;-74
2023/09/21 03:54:46;;;;;;;3.38;2.40;;;;;;;16.62;100.00;99733.31;5073862;28;20039;-73
2023/09/21 03:57:15;;;;;;;3.00;2.55;;;;;;;16.65;100.00;99737.56;5070583;28;20037;-74
2023/09/21 03:59:41;;;;;;;4.20;1.90;;;;;;;16.65;100.00;99734.09;5073612;28;20403;-74
2023/09/21 04:02:09;;;;;;;3.40;2.20;;;;;;;16.68;100.00;99732.09;5070816;28;20017;-74
2023/09/21 04:04:36;;;;;;;3.55;2.03;;;;;;;16.71;100.00;99726.63;5073210;28;20115;-74
2023/09/21 04:07:01;;;;;;;2.10;1.90;;;;;;;16.71;100.00;99709.97;5071802;28;20106;-73
2023/09/21 04:09:27;;;;;;;4.07;2.28;;;;;;;16.80;100.00;99722.53;5072487;28;20056;-73
2023/09/21 04:11:52;;;;;;;3.38;1.75;;;;;;;16.83;100.00;99722.34;5066504;28;20386;-73
2023/09/21 04:14:17;;;;;;;3.63;2.33;;;;;;;16.88;100.00;99730.78;5069596;28;20055;-73
2023/09/21 04:16:43;;;;;;;3.17;2.05;;;;;;;16.89;100.00;99729.00;5074765;28;20101;-73
2023/09/21 04:19:10;;;;;;;2.80;2.15;;;;;;;16.82;100.00;99723.28;5067718;28;20449;-74
2023/09/21 04:21:36;;;;;;;3.15;2.08;;;;;;;16.88;100.00;99722.88;5074397;28;20119;-74
2023/09/21 04:24:02;;;;;;;5.05;2.03;;;;;;;16.86;100.00;99719.50;5069299;28;20024;-74
2023/09/21 04:26:28;;;;;;;3.55;2.17;;;;;;;16.92;100.00;99729.63;5069759;28;20029;-74
2023/09/21 04:28:53;;;;;;;4.40;2.47;;;;;;;16.92;100.00;99715.63;5074174;28;20161;-74
2023/09/21 04:31:19;;;;;;;2.97;2.00;;;;;;;16.92;100.00;99724.34;5072350;28;20051;-73
2023/09/21 04:33:45;;;;;;;3.83;2.10;;;;;;;16.94;100.00;99717.22;5072198;28;20032;-73
2023/09/21 04:36:10;;;;;;;6.93;2.35;;;;;;;16.96;100.00;99725.00;5074131;28;20028;-74
2023/09/21 04:38:37;;;;;;;5.97;2.40;;;;;;;16.96;100.00;99714.47;5070443;28;20033;-73
2023/09/21 04:41:04;;;;;;;2.90;2.10;;;;;;;16.95;100.00;99716.25;5074233;28;20067;-73
2023/09/21 04:43:29;;;;;;;4.32;2.00;;;;;;;16.96;100.00;99717.94;5069258;28;20533;-74
2023/09/21 04:45:54;;;;;;;2.45;2.25;;;;;;;16.99;100.00;99712.47;5074572;28;20020;-73
2023/09/21 04:48:20;;;;;;;2.55;2.08;;;;;;;16.97;100.00;99719.63;5069589;28;20075;-74
2023/09/21 04:50:51;;;;;;;3.40;2.38;;;;;;;16.72;100.00;99723.03;5073025;28;20111;-74
2023/09/21 04:53:16;;;;;;;6.85;2.60;;;;;;;16.53;100.00;99718.13;5069963;28;20017;-73
2023/09/21 04:55:42;;;;;;;6.95;2.38;;;;;;;16.51;100.00;99719.19;5072342;28;20490;-73
2023/09/21 04:58:07;;;;;;;3.88;2.78;;;;;;;16.53;100.00;99720.78;5070259;28;20474;-73
2023/09/21 05:00:33;;;;;;;4.05;2.28;;;;;;;16.57;100.00;99709.09;5071827;28;20500;-73
2023/09/21 05:02:59;;;;;;;5.32;2.47;;;;;;;16.60;100.00;99719.41;5069618;28;20033;-74
2023/09/21 05:05:26;;;;;;;4.07;2.40;;;;;;;16.50;100.00;99713.06;5071950;28;20388;-73
2023/09/21 05:07:52;;;;;;;5.50;2.67;;;;;;;16.40;100.00;99712.00;5068540;28;20369;-73
2023/09/21 05:10:17;;;;;;;3.55;2.50;;;;;;;16.36;100.00;99713.16;5072192;28;20027;-73
2023/09/21 05:12:43;;;;;;;2.78;2.30;;;;;;;16.34;100.00;99696.63;5066147;28;20044;-73
2023/09/21 05:15:11;;;;;;;4.07;2.10;;;;;;;16.43;100.00;99696.03;5071158;28;20056;-73
2023/09/21 05:17:36;;;;;;;3.00;2.50;;;;;;;16.48;100.00;99691.31;5068670;28;20059;-73
2023/09/21 05:20:05;;;;;;;4.60;2.53;;;;;;;16.52;100.00;99689.31;5071619;28;20032;-74
2023/09/21 05:22:30;;;;;;;5.72;2.70;;;;;;;16.62;100.00;99698.28;5068187;28;20080;-73
2023/09/21 05:24:56;;;;;;;3.72;2.38;;;;;;;16.69;100.00;99689.03;5071065;28;20534;-73
2023/09/21 05:27:21;;;;;;;4.25;2.53;;;;;;;16.75;100.00;99695.72;5057100;28;20032;-73
2023/09/21 05:29:47;;;;;;;5.57;2.50;;;;;;;16.81;100.00;99695.28;5063064;28;20025;-74
2023/09/21 05:32:13;;;;;;;4.75;2.70;;;;;;;16.89;100.00;99695.59;5069335;28;20029;-73
2023/09/21 05:34:39;;;;;;;3.78;2.47;;;;;;;16.93;100.00;99696.25;5071919;28;20028;-73
2023/09/21 05:37:04;;;;;;;3.60;2.30;;;;;;;17.00;100.00;99693.09;5069553;28;20021;-73
2023/09/21 05:39:30;;;;;;;5.05;2.53;;;;;;;16.97;100.00;99671.38;5072232;28;20036;-74
2023/09/21 05:41:57;;;;;;;6.53;2.80;;;;;;;17.06;100.00;99689.19;5062617;28;20056;-74
2023/09/21 05:44:24;;;;;;;5.53;2.42;;;;;;;17.13;100.00;99690.44;5062235;28;20036;-73
2023/09/21 05:46:50;;;;;;;2.45;2.20;;;;;;;17.18;100.00;99684.88;5065532;28;20067;-73
2023/09/21 05:49:22;;;;;;;4.15;2.53;;;;;;;17.19;100.00;99694.47;5062209;28;20033;-74
2023/09/21 05:51:56;;;;;;;3.42;2.30;;;;;;;17.14;100.00;99684.25;5051854;28;20391;-73
2023/09/21 05:54:23;;;;;;;4.88;2.75;;;;;;;17.23;100.00;99690.66;5067583;28;20081;-73
2023/09/21 05:56:58;;;;;;;3.83;2.30;;;;;;;17.14;100.00;99692.16;5061798;28;20115;-74
2023/09/21 05:59:24;;;;;;;5.45;2.83;;;;;;;16.91;100.00;99691.09;5053117;28;20064;-74
2023/09/21 06:01:50;;;;;;;6.97;2.58;;;;;;;16.75;100.00;99699.19;5056130;28;20032;-74
2023/09/21 06:04:17;;;;;;;7.57;2.88;;;;;;;16.58;100.00;99695.00;5066505;28;20066;-74
2023/09/21 06:06:44;;;;;;;7.55;2.58;;;;;;;16.44;100.00;99700.31;5071310;28;20031;-73
2023/09/21 06:09:10;;;;;;;4.55;2.78;;;;;;;16.33;100.00;99692.31;5056063;28;20031;-74
2023/09/21 06:11:36;;;;;;;4.03;2.70;;;;;;;16.20;100.00;99701.94;5064764;28;20036;-74
2023/09/21 06:14:02;;;;;;;4.07;2.92;;;;;;;16.07;100.00;99710.63;5066005;28;20055;-74
2023/09/21 06:16:29;;;;;;;6.80;2.80;;;;;;;15.95;100.00;99703.50;5071551;28;20388;-74
2023/09/21 06:18:54;;;;;;;8.25;3.00;;;;;;;15.78;100.00;99691.44;5066428;28;20032;-74
2023/09/21 06:21:20;;;;;;;4.95;2.92;;;;;;;15.73;100.00;99700.53;5071033;28;20083;-74
2023/09/21 06:23:45;;;;;;;5.40;3.05;;;;;;;15.68;100.00;99703.47;5067144;28;20048;-74
2023/09/21 06:26:14;;;;;;;6.18;3.05;;;;;;;15.66;100.00;99705.31;5063306;28;20021;-74
2023/09/21 06:28:43;;;;;;;6.38;3.40;;;;;;;15.58;100.00;99695.28;5062132;28;20025;-74
2023/09/21 06:31:09;;;;;;;5.47;3.08;;;;;;;15.61;100.00;99712.66;5069182;28;20094;-74
2023/09/21 06:33:34;;;;;;;5.68;3.30;;;;;;;15.61;100.00;99715.28;5067744;28;20024;-74
2023/09/21 06:35:59;;;;;;;5.03;3.38;;;;;;;15.60;100.00;99706.56;5072485;28;20056;-74
2023/09/21 06:38:25;;;;;;;9.50;4.18;;;;;;;15.57;100.00;99712.00;5067642;28;20021;-74
2023/09/21 06:40:51;;;;;;;4.30;3.30;;;;;;;15.55;100.00;99705.16;5064026;28;20100;-74
2023/09/21 06:43:16;;;;;;;5.63;3.45;;;;;;;15.57;100.00;99712.00;5068234;28;20448;-75
2023/09/21 06:45:41;;;;;;;6.57;3.47;;;;;;;15.60;100.00;99717.06;5067567;28;20029;-74
2023/09/21 06:48:10;;;;;;;5.00;3.78;;;;;;;15.60;100.00;99717.06;5067480;28;20387;-74
2023/09/21 06:50:40;;;;;;;6.82;4.32;;;;;;;15.61;100.00;99712.66;5070040;28;20048;-75
2023/09/21 06:53:07;;;;;;;4.28;3.45;;;;;;;15.57;100.00;99733.00;5061731;28;20067;-75
2023/09/21 06:55:32;;;;;;;6.47;3.72;;;;;;;15.58;100.00;99739.94;5062980;28;20056;-75
2023/09/21 06:57:57;;;;;;;6.43;3.65;;;;;;;15.56;100.00;99730.47;5059254;28;20424;-76
2023/09/21 07:00:23;;;;;;;6.70;4.20;;;;;;;15.61;100.00;99729.25;5064467;28;20055;-76
2023/09/21 07:02:48;;;;;;;6.03;4.55;;;;;;;15.62;100.00;99730.09;5060684;28;20112;-77
2023/09/21 07:05:13;;;;;;;6.43;4.70;;;;;;;15.62;100.00;99728.31;5070390;28;20354;-76
2023/09/21 07:07:41;;;;;;;7.57;4.22;;;;;;;15.57;100.00;99727.75;5066477;28;20016;-76
2023/09/21 07:10:11;;;;;;;5.47;3.97;;;;;;;15.57;100.00;99730.38;5065514;28;20521;-77
2023/09/21 07:12:38;;;;;;;7.03;4.72;;;;;;;15.63;100.00;99727.38;5065395;28;20036;-76
2023/09/21 07:15:03;;;;;;;5.55;4.40;;;;;;;15.68;100.00;99730.59;5068785;28;20025;-77
2023/09/21 07:17:29;;;;;;;5.93;4.55;;;;;;;15.69;100.00;99710.41;5062335;28;20029;-77
2023/09/21 07:19:54;;;;;;;9.90;5.22;;;;;;;15.76;100.00;99714.38;5060616;28;20409;-79
2023/09/21 07:22:20;;;;;;;7.28;5.07;;;;;;;15.78;100.00;99716.88;5053414;28;20031;-76
2023/09/21 07:24:47;;;;;;;8.80;5.03;;;;;;;15.82;100.00;99713.09;5068595;28;20530;-76
2023/09/21 07:27:14;;;;;;;5.80;4.50;;;;;;;15.84;100.00;99716.50;5065439;28;20029;-76
2023/09/21 07:29:40;;;;;;;5.43;4.65;;;;;;;15.84;100.00;99717.34;5067610;28;20035;-76
2023/09/21 07:32:08;;;;;;;6.43;4.93;;;;;;;15.90;100.00;99722.22;5066162;28;20111;-76
2023/09/21 07:34:34;;;;;;;6.93;4.85;;;;;;;15.95;100.00;99713.19;5065670;28;20024;-76
2023/09/21 07:37:00;;;;;;;8.57;5.00;;;;;;;15.95;100.00;99710.56;5067152;28;20028;-76
2023/09/21 07:39:25;;;;;;;6.60;5.15;;;;;;;15.89;100.00;99707.38;5067046;28;20051;-76
2023/09/21 07:41:50;;;;;;;6.30;5.15;;;;;;;15.87;100.00;99717.16;5065304;28;20396;-76
2023/09/21 07:44:16;;;;;;;7.38;5.28;;;;;;;15.83;100.00;99718.28;5068741;28;20387;-76
2023/09/21 07:46:41;;;;;;;8.05;5.07;;;;;;;15.83;100.00;99725.31;5061199;28;20622;-76
2023/09/21 07:49:07;;;;;;;5.28;4.75;;;;;;;15.79;100.00;99724.66;5062740;28;20119;-76
2023/09/21 07:51:33;;;;;;;8.35;5.15;;;;;;;15.82;100.00;99726.25;5065912;28;20468;-76
2023/09/21 07:54:00;;;;;;;7.57;5.03;;;;;;;15.80;100.00;99715.00;5061797;28;20035;-76
2023/09/21 07:56:31;;;;;;;9.73;5.57;;;;;;;15.77;100.00;99729.19;5065099;28;20383;-76
2023/09/21 07:58:57;;;;;;;8.65;5.53;;;;;;;15.78;100.00;99725.59;5065598;28;20119;-76
2023/09/21 08:01:23;;;;;;;8.98;5.88;;;;;;;15.78;100.00;99740.53;5060100;28;20439;-76
2023/09/21 08:03:50;;;;;;;8.07;5.47;;;;;;;15.77;100.00;99731.81;5066004;28;20040;-76
2023/09/21 08:06:16;;;;;;;8.38;5.18;;;;;;;15.74;100.00;99729.38;5060971;28;20024;-76
2023/09/21 08:08:42;;;;;;;7.00;5.63;;;;;;;15.74;100.00;99733.78;5059376;28;20029;-79
2023/09/21 08:11:07;;;;;;;7.45;5.38;;;;;;;15.76;100.00;99748.53;5066123;28;20528;-76
2023/09/21 08:13:33;;;;;;;8.98;5.30;;;;;;;15.78;100.00;99758.91;5057373;28;20535;-77
2023/09/21 08:16:01;;;;;;;7.47;5.43;;;;;;;15.68;100.00;99740.25;5062741;28;20484;-77
2023/09/21 08:18:26;;;;;;;10.88;6.00;;;;;;;15.83;100.00;99754.25;5067069;28;20024;-76
2023/09/21 08:20:52;;;;;;;10.57;5.93;;;;;;;15.80;100.00;99749.16;5071804;28;20493;-76
2023/09/21 08:23:17;;;;;;;6.63;6.00;;;;;;;15.80;100.00;99751.81;5070837;28;20035;-77
2023/09/21 08:25:43;;;;;;;9.75;6.07;;;;;;;15.84;100.00;99761.19;5069217;28;20041;-76
2023/09/21 08:28:08;;;;;;;9.00;6.75;;;;;;;15.79;100.00;99784.25;5051538;28;20427;-76
2023/09/21 08:30:34;;;;;;;6.70;6.00;;;;;;;15.76;100.00;99781.81;5053013;28;20082;-76
2023/09/21 08:32:59;;;;;;;6.80;6.10;;;;;;;15.70;100.00;99790.09;5052692;28;20029;-76
2023/09/21 08:35:25;;;;;;;12.88;6.03;;;;;;;15.63;100.00;99790.44;5060377;28;20024;-76
2023/09/21 08:37:53;;;;;;;8.93;6.43;;;;;;;15.61;100.00;99787.03;5065071;28;20023;-76
2023/09/21 08:40:21;;;;;;;6.75;5.03;;;;;;;15.60;100.00;99797.66;5065135;28;20484;-76
2023/09/21 08:42:52;;;;;;;6.75;5.60;;;;;;;15.57;100.00;99796.06;5051319;28;20222;-75
2023/09/21 08:45:19;;;;;;;7.00;5.13;;;;;;;15.54;100.00;99806.75;5056526;28;20055;-76
2023/09/21 08:47:46;;;;;;;5.20;4.20;;;;;;;15.49;100.00;99808.81;5069045;28;20433;-76
2023/09/21 08:50:13;;;;;;;5.15;4.32;;;;;;;15.55;100.00;99812.84;5071009;28;20546;-75
2023/09/21 08:52:40;;;;;;;6.15;4.25;;;;;;;15.52;100.00;99807.78;5066163;28;20028;-76
2023/09/21 08:55:06;;;;;;;6.57;4.32;;;;;;;15.53;100.00;99812.94;5064851;28;20036;-77
2023/09/21 08:57:32;;;;;;;7.82;4.63;;;;;;;15.50;100.00;99809.63;5060066;28;20048;-77
2023/09/21 09:00:00;;;;;;;4.53;3.72;;;;;;;15.49;100.00;99808.81;5063080;28;20025;-77
2023/09/21 09:02:27;;;;;;;5.32;4.43;;;;;;;15.47;100.00;99810.69;5066250;28;20016;-77
2023/09/21 09:04:53;;;;;;;5.00;4.45;;;;;;;15.44;100.00;99806.47;5063199;28;20033;-77
2023/09/21 09:07:19;;;;;;;5.47;4.45;;;;;;;15.52;100.00;99802.53;5066829;28;20116;-77
2023/09/21 09:09:46;;;;;;;5.50;4.72;;;;;;;15.55;100.00;99795.28;5057135;28;20031;-77
2023/09/21 09:12:24;;;;;;;7.65;4.53;;;;;;;15.48;100.00;99809.75;5054566;28;20037;-77
2023/09/21 09:14:54;;;;;;;5.43;3.70;;;;;;;15.45;100.00;99817.81;5062967;28;20412;-77
2023/09/21 09:17:19;;;;;;;4.07;3.28;;;;;;;15.42;100.00;99807.47;5066642;28;20020;-77
2023/09/21 09:19:48;;;;;;;4.57;3.45;;;;;;;15.44;100.00;99805.63;5058818;28;20019;-77
2023/09/21 09:22:16;;;;;;;5.25;3.65;;;;;;;15.49;100.00;99806.16;5061691;28;20025;-77
2023/09/21 09:24:45;;;;;;;4.60;4.03;;;;;;;15.52;100.00;99802.53;5066397;28;20031;-77
2023/09/21 09:27:10;;;;;;;6.00;3.70;;;;;;;15.55;100.00;99781.31;5061086;28;20017;-77
2023/09/21 09:29:56;;;;;;;5.53;4.15;;;;;;;15.56;100.00;99796.97;5065177;28;20040;-77
2023/09/21 09:32:23;;;;;;;4.20;3.80;;;;;;;15.52;100.00;99784.97;5067766;28;20032;-77
2023/09/21 09:34:49;;;;;;;3.78;3.38;;;;;;;15.53;100.00;99788.44;5068873;28;20020;-77
2023/09/21 09:37:15;;;;;;;5.20;3.40;;;;;;;15.58;100.00;99781.97;5061070;28;20104;-76
2023/09/21 09:39:44;;;;;;;3.65;3.15;;;;;;;15.54;100.00;99783.09;5048524;28;20496;-77
2023/09/21 09:42:11;;;;;;;3.42;3.10;;;;;;;15.59;100.00;99762.63;5065435;28;20017;-78
2023/09/21 09:44:44;;;;;;;3.40;3.10;;;;;;;15.63;100.00;99774.69;5061923;28;20032;-77
2023/09/21 09:47:12;;;;;;;5.00;3.00;;;;;;;15.65;100.00;99778.03;5062411;28;20039;-76
2023/09/21 09:49:39;;;;;;;5.00;3.38;;;;;;;15.79;100.00;99776.38;5064941;28;20045;-77
2023/09/21 09:52:06;;;;;;;3.40;3.10;;;;;;;15.86;100.00;99782.97;5063831;28;20057;-77
2023/09/21 09:54:32;;;;;;;3.75;3.10;;;;;;;15.89;100.00;99778.34;5064639;28;20063;-76
2023/09/21 09:56:59;;;;;;;11.43;4.80;;;;;;;15.85;100.00;99776.84;5053901;28;20112;-76
2023/09/21 09:59:28;;;;;;;9.35;4.05;;;;;;;15.90;100.00;99772.16;5060949;28;20085;-75
2023/09/21 10:01:54;;;;;;;5.65;4.18;;;;;;;15.96;100.00;99776.19;5058327;28;20550;-75
2023/09/21 10:04:20;;;;;;;6.47;4.43;;;;;;;16.05;100.00;99765.06;5069896;28;20123;-76
2023/09/21 10:06:47;;;;;;;9.07;5.22;;;;;;;16.10;100.00;99760.38;5068395;28;20033;-75
2023/09/21 10:09:14;;;;;;;8.73;5.72;;;;;;;16.16;100.00;99761.78;5065085;28;20028;-75
2023/09/21 10:11:48;;;;;;;7.65;5.35;;;;;;;16.20;100.00;99759.78;5071746;28;20036;-75
2023/09/21 10:14:15;;;;;;;9.48;5.35;;;;;;;16.29;100.00;99756.56;5058199;28;20035;-75
2023/09/21 10:16:49;;;;;;;9.48;5.75;;;;;;;16.34;100.00;99757.09;5058449;28;20423;-75
2023/09/21 10:19:16;;;;;;;7.03;5.75;;;;;;;16.44;100.00;99745.03;5053986;28;20028;-75
2023/09/21 10:21:43;;;;;;;7.90;6.47;;;;;;;16.48;100.00;99743.94;5062644;28;20024;-75
2023/09/21 10:24:11;;;;;;;8.50;6.40;;;;;;;16.53;100.00;99744.44;5068559;28;20033;-75
2023/09/21 10:26:40;;;;;;;8.45;6.68;;;;;;;16.60;100.00;99740.47;5062129;28;20024;-75
2023/09/21 10:29:07;;;;;;;6.85;6.13;;;;;;;16.75;100.00;99750.97;5063057;28;20457;-75
2023/09/21 10:31:36;;;;;;;9.18;6.60;;;;;;;16.76;100.00;99752.66;5064136;28;20117;-75
2023/09/21 10:34:02;;;;;;;6.68;5.80;;;;;;;16.79;100.00;99749.81;5061007;28;20035;-75
2023/09/21 10:36:31;;;;;;;9.63;5.68;;;;;;;16.77;100.00;99743.81;5064274;28;20123;-75
2023/09/21 10:39:24;;;;;;;7.85;5.25;;;;;;;16.75;100.00;99738.66;5068094;28;20027;-75
2023/09/21 10:41:51;;;;;;;5.72;4.32;;;;;;;16.71;100.00;99738.91;5058671;28;20497;-75
2023/09/21 10:44:52;;;;;;;7.32;4.55;;;;;;;16.72;100.00;99733.56;5066543;28;20029;-75
2023/09/21 10:47:44;;;;;;;5.15;4.32;;;;;;;16.80;100.00;99728.66;5055704;28;20036;-76
2023/09/21 10:50:12;;;;;;;6.20;4.07;;;;;;;16.98;100.00;99733.63;5049275;28;20445;-76
2023/09/21 10:52:39;;;;;;;6.32;3.70;;;;;;;16.86;100.00;99730.03;5057504;28;20116;-76
2023/09/21 10:55:07;;;;;;;7.07;3.80;;;;;;;16.76;100.00;99729.81;5065151;28;20021;-76
2023/09/21 10:57:33;;;;;;;6.45;3.70;;;;;;;16.73;100.00;99718.59;5067028;28;20044;-76
2023/09/21 10:59:59;;;;;;;5.72;3.42;;;;;;;16.68;100.00;99723.34;5063028;28;20036;-76
2023/09/21 11:02:29;;;;;;;5.68;3.72;;;;;;;16.69;100.00;99701.34;5066334;28;20128;-76
2023/09/21 11:04:55;;;;;;;6.43;3.78;;;;;;;16.72;100.00;99696.72;5059798;28;20017;-76
2023/09/21 11:07:21;;;;;;;4.97;3.65;;;;;;;16.79;100.00;99691.91;5066154;28;20029;-77
2023/09/21 11:09:48;;;;;;;7.88;4.05;;;;;;;16.95;100.00;99692.56;5049124;28;20032;-77
2023/09/21 11:12:14;;;;;;;5.80;3.55;;;;;;;16.97;100.00;99693.31;5058721;28;20086;-77
2023/09/21 11:14:48;;;;;;;4.28;3.58;;;;;;;16.95;100.00;99679.41;5054738;28;20117;-77
2023/09/21 11:17:17;;;;;;;5.05;3.70;;;;;;;17.07;100.00;99685.63;5052969;28;20036;-77
2023/09/21 11:19:43;;;;;;;4.32;3.28;;;;;;;17.08;100.00;99679.41;5061577;28;20504;-78
2023/09/21 11:22:09;;;;;;;5.55;3.50;;;;;;;17.01;100.00;99678.16;5054239;28;20511;-78
2023/09/21 11:24:38;;;;;;;5.45;2.97;;;;;;;16.93;100.00;99675.19;5060005;28;20056;-77
2023/09/21 11:27:09;;;;;;;6.57;3.63;;;;;;;16.84;100.00;99674.03;5066447;28;20024;-77